createdAt,value
2019-03-21T00:02:38.675Z,88.89
2019-03-21T00:05:44.392Z,89.30
2019-03-21T00:08:50.123Z,89.41
2019-03-21T00:12:03.600Z,88.97
2019-03-21T00:15:20.905Z,89.14
2019-03-21T00:18:26.632Z,89.61
2019-03-21T00:21:32.355Z,90.30
2019-03-21T00:24:38.067Z,90.98
2019-03-21T00:27:43.790Z,91.24
2019-03-21T00:30:49.479Z,90.58
2019-03-21T00:33:55.216Z,89.77
2019-03-21T00:37:00.943Z,89.69
2019-03-21T00:40:08.794Z,89.78
2019-03-21T00:43:14.496Z,89.84
2019-03-21T00:46:20.167Z,90.42
2019-03-21T00:49:27.099Z,90.53
2019-03-21T00:52:32.851Z,91.00
2019-03-21T00:55:39.143Z,91.10
2019-03-21T00:58:44.776Z,91.40
2019-03-21T01:01:50.506Z,91.64
2019-03-21T01:04:56.229Z,91.33
2019-03-21T01:08:02.891Z,91.06
2019-03-21T01:11:08.567Z,90.84
2019-03-21T01:14:14.268Z,90.40
2019-03-21T01:17:19.963Z,89.67
2019-03-21T01:20:25.735Z,89.59
2019-03-21T01:23:31.460Z,89.84
2019-03-21T01:26:37.239Z,90.32
2019-03-21T01:29:42.987Z,90.58
2019-03-21T01:32:48.639Z,90.02
2019-03-21T01:35:54.386Z,89.96
2019-03-21T01:39:00.085Z,90.29
2019-03-21T01:42:06.261Z,90.57
2019-03-21T01:45:13.857Z,90.96
2019-03-21T01:48:19.500Z,90.71
2019-03-21T01:51:25.194Z,90.95
2019-03-21T01:54:30.892Z,91.58
2019-03-21T01:57:36.590Z,92.15
2019-03-21T02:00:42.295Z,92.02
2019-03-21T02:03:48.126Z,91.38
2019-03-21T02:06:53.786Z,91.23
2019-03-21T02:09:59.700Z,91.61
2019-03-21T02:13:05.421Z,92.03
2019-03-21T02:16:11.089Z,92.27
2019-03-21T02:19:16.831Z,91.89
2019-03-21T02:22:22.476Z,91.66
2019-03-21T02:25:29.294Z,91.80
2019-03-21T02:28:35.177Z,92.06
2019-03-21T02:31:41.066Z,92.14
2019-03-21T02:34:46.795Z,92.07
2019-03-21T02:37:52.459Z,91.98
2019-03-21T02:40:59.290Z,91.97
2019-03-21T02:44:05.022Z,92.45
2019-03-21T02:47:10.650Z,93.12
2019-03-21T02:50:19.762Z,92.84
2019-03-21T02:53:25.444Z,92.99
2019-03-21T02:56:31.165Z,93.53
2019-03-21T02:59:36.903Z,93.73
2019-03-21T03:02:42.618Z,93.86
2019-03-21T03:05:48.341Z,93.99
2019-03-21T03:08:54.059Z,94.59
2019-03-21T03:11:59.856Z,94.85
2019-03-21T03:15:06.509Z,94.57
2019-03-21T03:18:12.265Z,94.64
2019-03-21T03:21:17.945Z,94.17
2019-03-21T03:24:25.565Z,93.90
2019-03-21T03:27:31.284Z,94.04
2019-03-21T03:30:36.990Z,93.72
2019-03-21T03:33:42.661Z,93.56
2019-03-21T03:36:48.386Z,93.48
2019-03-21T03:39:54.078Z,93.62
2019-03-21T03:42:59.730Z,93.61
2019-03-21T03:46:05.494Z,92.66
2019-03-21T03:49:11.169Z,92.88
2019-03-21T03:52:16.890Z,93.56
2019-03-21T03:55:22.561Z,94.13
2019-03-21T03:58:28.241Z,94.44
2019-03-21T04:01:33.914Z,94.14
2019-03-21T04:04:39.667Z,93.97
2019-03-21T04:07:45.397Z,93.67
2019-03-21T04:10:52.039Z,93.90
2019-03-21T04:13:57.723Z,93.37
2019-03-21T04:17:03.416Z,93.86
2019-03-21T04:20:11.043Z,94.36
2019-03-21T04:23:17.633Z,94.55
2019-03-21T04:26:26.691Z,93.95
2019-03-21T04:29:32.381Z,94.09
2019-03-21T04:32:38.023Z,94.69
2019-03-21T04:35:43.733Z,95.39
2019-03-21T04:38:49.360Z,96.02
2019-03-21T04:41:55.077Z,96.57
2019-03-21T04:45:00.794Z,96.08
2019-03-21T04:48:06.460Z,96.38
2019-03-21T04:51:12.153Z,96.85
2019-03-21T04:54:17.769Z,97.12
2019-03-21T04:57:23.487Z,97.30
2019-03-21T05:00:31.562Z,97.46
2019-03-21T05:03:38.228Z,97.48
2019-03-21T05:06:43.892Z,97.74
2019-03-21T05:09:49.649Z,97.42
2019-03-21T05:12:55.343Z,96.93
2019-03-21T05:16:00.992Z,96.53
2019-03-21T05:19:06.692Z,96.68
2019-03-21T05:22:12.371Z,97.17
2019-03-21T05:25:18.171Z,96.85
2019-03-21T05:28:24.828Z,96.68
2019-03-21T05:31:32.551Z,97.03
2019-03-21T05:34:38.244Z,97.19
2019-03-21T05:37:43.994Z,97.20
2019-03-21T05:40:49.642Z,97.43
2019-03-21T05:44:05.801Z,97.15
2019-03-21T05:47:11.446Z,96.96
2019-03-21T05:50:17.493Z,96.33
2019-03-21T05:53:23.270Z,95.20
2019-03-21T05:56:29.223Z,93.43
2019-03-21T05:59:34.897Z,92.16
2019-03-21T06:02:40.518Z,91.94
2019-03-21T06:05:49.455Z,91.65
2019-03-21T06:12:17.733Z,90.55
2019-03-21T06:15:28.782Z,89.77
2019-03-21T06:19:06.499Z,88.93
2019-03-21T06:22:37.281Z,88.55
2019-03-21T06:26:13.235Z,87.94
2019-03-21T06:29:18.902Z,86.84
2019-03-21T06:32:24.880Z,86.33
2019-03-21T06:35:31.628Z,85.02
2019-03-21T06:38:37.328Z,84.77
2019-03-21T06:41:43.039Z,83.76
2019-03-21T06:44:48.782Z,82.49
2019-03-21T06:47:54.485Z,81.63
2019-03-21T06:51:00.159Z,80.80
2019-03-21T06:54:05.989Z,79.96
2019-03-21T06:57:11.736Z,81.37
2019-03-21T07:00:17.523Z,80.40
2019-03-21T07:03:23.219Z,80.29
2019-03-21T07:06:28.925Z,79.70
2019-03-21T07:09:34.594Z,78.22
2019-03-21T07:12:40.307Z,77.83
2019-03-21T07:15:46.032Z,77.37
2019-03-21T07:18:51.743Z,76.16
2019-03-21T07:21:57.611Z,75.60
2019-03-21T07:25:03.395Z,76.20
2019-03-21T07:28:09.094Z,74.83
2019-03-21T07:31:14.803Z,75.27
2019-03-21T07:34:20.558Z,75.33
2019-03-21T07:37:26.212Z,75.52
2019-03-21T07:40:32.062Z,75.69
2019-03-21T07:43:37.823Z,75.50
2019-03-21T07:46:43.495Z,75.55
2019-03-21T07:49:49.192Z,74.62
2019-03-21T07:52:54.945Z,74.51
2019-03-21T07:56:00.626Z,72.57
2019-03-21T07:59:07.274Z,71.44
2019-03-21T08:02:13.032Z,72.13
2019-03-21T08:05:18.669Z,70.36
2019-03-21T08:08:24.407Z,69.38
2019-03-21T08:11:30.166Z,67.55
2019-03-21T08:14:35.834Z,67.89
2019-03-21T08:17:41.670Z,69.02
2019-03-21T08:20:56.242Z,69.43
2019-03-21T08:23:54.710Z,67.52
2019-03-21T08:27:01.423Z,65.22
2019-03-21T08:30:10.854Z,64.35
2019-03-21T08:33:16.529Z,65.05
2019-03-21T08:36:22.189Z,64.24
2019-03-21T08:39:27.913Z,64.03
2019-03-21T08:42:33.602Z,64.34
2019-03-21T08:45:39.381Z,63.26
2019-03-21T08:48:45.139Z,62.69
2019-03-21T08:51:50.819Z,62.43
2019-03-21T08:54:56.616Z,59.73
2019-03-21T08:58:02.228Z,58.78
2019-03-21T09:01:07.967Z,56.51
2019-03-21T09:04:13.686Z,55.07
2019-03-21T09:07:19.405Z,53.45
2019-03-21T09:10:25.076Z,51.31
2019-03-21T09:13:30.782Z,49.84
2019-03-21T09:16:36.486Z,48.09
2019-03-21T09:19:42.131Z,48.82
2019-03-21T09:22:47.832Z,48.72
2019-03-21T09:25:53.466Z,48.15
2019-03-21T09:28:59.175Z,48.43
2019-03-21T09:32:04.989Z,47.33
2019-03-21T09:35:12.429Z,47.27
2019-03-21T09:38:18.269Z,46.37
2019-03-21T09:41:23.970Z,46.17
2019-03-21T09:44:30.176Z,45.41
2019-03-21T09:47:35.999Z,45.09
2019-03-21T09:50:41.714Z,45.33
2019-03-21T09:53:47.422Z,44.27
2019-03-21T09:56:53.103Z,43.90
2019-03-21T09:59:58.835Z,44.80
2019-03-21T10:03:04.876Z,45.44
2019-03-21T10:06:10.588Z,43.44
2019-03-21T10:09:16.273Z,43.71
2019-03-21T10:12:21.966Z,43.34
2019-03-21T10:15:27.650Z,42.83
2019-03-21T10:18:33.279Z,42.26
2019-03-21T10:21:43.472Z,43.89
2019-03-21T10:24:46.342Z,42.94
2019-03-21T10:27:52.048Z,41.56
2019-03-21T10:30:57.719Z,40.18
2019-03-21T10:34:03.333Z,39.89
2019-03-21T10:37:09.029Z,37.63
2019-03-21T10:40:14.753Z,38.73
2019-03-21T10:43:20.601Z,37.30
2019-03-21T10:46:26.379Z,35.40
2019-03-21T10:49:32.166Z,37.14
2019-03-21T10:52:37.969Z,35.69
2019-03-21T10:55:43.662Z,34.43
2019-03-21T10:58:49.405Z,33.92
2019-03-21T11:02:06.680Z,34.02
2019-03-21T11:05:05.209Z,33.40
2019-03-21T11:08:10.970Z,34.18
2019-03-21T11:11:16.685Z,34.63
2019-03-21T11:14:22.371Z,34.92
2019-03-21T11:17:28.150Z,34.37
2019-03-21T11:20:35.441Z,35.08
2019-03-21T11:23:41.101Z,34.62
2019-03-21T11:26:46.834Z,33.90
2019-03-21T11:29:52.545Z,34.46
2019-03-21T11:32:58.305Z,33.88
2019-03-21T11:36:04.139Z,35.01
2019-03-21T11:39:09.833Z,33.61
2019-03-21T11:42:15.617Z,34.03
2019-03-21T11:45:21.452Z,34.52
2019-03-21T11:48:27.167Z,34.65
2019-03-21T11:51:33.863Z,35.42
2019-03-21T11:54:39.568Z,34.96
2019-03-21T11:57:45.309Z,33.67
2019-03-21T12:00:50.969Z,34.85
2019-03-21T12:03:56.759Z,34.47
2019-03-21T12:07:02.464Z,35.30
2019-03-21T12:10:08.446Z,36.18
2019-03-21T12:13:14.098Z,35.69
2019-03-21T12:16:19.817Z,36.41
2019-03-21T12:19:25.653Z,36.48
2019-03-21T12:22:31.347Z,36.09
2019-03-21T12:25:37.068Z,35.53
2019-03-21T12:28:42.732Z,35.16
2019-03-21T12:31:48.490Z,34.95
2019-03-21T12:34:54.226Z,34.84
2019-03-21T12:37:59.909Z,35.18
2019-03-21T12:41:06.610Z,34.14
2019-03-21T12:44:12.294Z,33.86
2019-03-21T12:47:17.982Z,33.81
2019-03-21T12:50:23.771Z,34.05
2019-03-21T12:53:29.578Z,34.36
2019-03-21T12:56:35.280Z,34.18
2019-03-21T12:59:40.975Z,34.46
2019-03-21T13:02:46.646Z,34.05
2019-03-21T13:05:52.295Z,33.96
2019-03-21T13:08:58.019Z,33.99
2019-03-21T13:12:03.725Z,33.68
2019-03-21T13:15:10.556Z,33.78
2019-03-21T13:18:16.205Z,34.00
2019-03-21T13:21:21.860Z,33.64
2019-03-21T13:24:27.670Z,33.78
2019-03-21T13:27:33.325Z,34.11
2019-03-21T13:30:39.016Z,34.57
2019-03-21T13:33:44.691Z,34.63
2019-03-21T13:36:50.398Z,34.74
2019-03-21T13:39:56.058Z,33.94
2019-03-21T13:43:01.850Z,33.41
2019-03-21T13:46:07.721Z,33.41
2019-03-21T13:49:13.408Z,33.14
2019-03-21T13:52:19.050Z,34.52
2019-03-21T13:55:24.715Z,33.87
2019-03-21T13:58:30.427Z,33.52
2019-03-21T14:01:36.198Z,33.54
2019-03-21T14:04:41.865Z,32.80
2019-03-21T14:07:47.581Z,32.63
2019-03-21T14:10:53.275Z,33.48
2019-03-21T14:13:59.019Z,31.91
2019-03-21T14:17:04.674Z,32.56
2019-03-21T14:20:11.220Z,32.47
2019-03-21T14:23:17.656Z,32.69
2019-03-21T14:26:23.361Z,32.59
2019-03-21T14:29:28.990Z,32.59
2019-03-21T14:32:34.706Z,32.62
2019-03-21T14:35:40.335Z,33.18
2019-03-21T14:38:45.996Z,32.35
2019-03-21T14:41:51.823Z,33.50
2019-03-21T14:44:57.513Z,33.00
2019-03-21T14:48:03.177Z,32.89
2019-03-21T14:51:10.513Z,33.85
2019-03-21T14:54:16.155Z,33.92
2019-03-21T14:57:21.897Z,32.71
2019-03-21T15:00:27.789Z,33.27
2019-03-21T15:03:33.651Z,33.44
2019-03-21T15:06:39.356Z,33.98
2019-03-21T15:09:45.016Z,34.13
2019-03-21T15:12:50.674Z,35.38
2019-03-21T15:15:56.353Z,32.41
2019-03-21T15:19:02.121Z,33.25
2019-03-21T15:22:07.794Z,34.98
2019-03-21T15:25:13.643Z,34.42
2019-03-21T15:28:19.332Z,36.41
2019-03-21T15:31:25.074Z,35.98
2019-03-21T15:34:30.769Z,35.51
2019-03-21T15:37:36.430Z,35.41
2019-03-21T15:40:42.143Z,37.42
2019-03-21T15:43:47.850Z,37.90
2019-03-21T15:46:53.545Z,38.42
2019-03-21T15:49:59.339Z,37.68
2019-03-21T15:53:05.422Z,38.38
2019-03-21T15:56:11.149Z,39.07
2019-03-21T15:59:17.644Z,38.71
2019-03-21T16:02:23.392Z,38.01
2019-03-21T16:05:29.069Z,39.79
2019-03-21T16:08:34.833Z,41.08
2019-03-21T16:15:51.281Z,41.64
2019-03-21T16:18:57.070Z,41.62
2019-03-21T16:22:02.750Z,42.84
2019-03-21T16:25:09.725Z,42.89
2019-03-21T16:28:15.489Z,43.21
2019-03-21T16:31:22.864Z,44.01
2019-03-21T16:34:28.761Z,43.73
2019-03-21T16:37:35.516Z,42.95
2019-03-21T16:40:41.263Z,42.88
2019-03-21T16:43:47.061Z,43.22
2019-03-21T16:46:53.109Z,44.46
2019-03-21T16:49:58.791Z,44.83
2019-03-21T16:53:04.844Z,45.48
2019-03-21T16:56:10.640Z,46.23
2019-03-21T16:59:16.435Z,45.38
2019-03-21T17:17:53.983Z,47.20
2019-03-21T17:25:02.388Z,51.35
2019-03-21T17:28:08.674Z,53.38
2019-03-21T17:31:23.440Z,53.45
2019-03-21T17:34:33.417Z,54.10
2019-03-21T17:44:40.117Z,56.61
2019-03-21T17:47:45.949Z,56.79
2019-03-21T17:50:53.098Z,57.67
2019-03-21T17:53:59.919Z,59.32
2019-03-21T17:57:05.975Z,59.22
2019-03-21T18:00:14.135Z,60.90
2019-03-21T18:03:19.826Z,60.50
2019-03-21T18:06:25.663Z,60.64
2019-03-21T18:09:35.643Z,61.57
2019-03-21T18:12:41.592Z,62.61
2019-03-21T18:15:47.586Z,62.99
2019-03-21T18:18:53.325Z,63.58
2019-03-21T18:21:59.069Z,64.45
2019-03-21T18:25:04.898Z,64.43
2019-03-21T18:28:10.668Z,64.81
2019-03-21T18:31:16.451Z,64.25
2019-03-21T18:34:22.175Z,64.63
2019-03-21T18:37:27.877Z,65.57
2019-03-21T18:40:33.703Z,65.60
2019-03-21T18:43:39.470Z,66.86
2019-03-21T18:46:45.216Z,68.12
2019-03-21T18:49:50.917Z,67.67
2019-03-21T18:52:56.732Z,67.23
2019-03-21T18:56:02.436Z,68.47
2019-03-21T18:59:08.082Z,67.93
2019-03-21T19:02:13.808Z,67.65
2019-03-21T19:05:19.555Z,68.97
2019-03-21T19:08:25.241Z,70.00
2019-03-21T19:11:33.759Z,70.79
2019-03-21T19:14:39.493Z,71.23
2019-03-21T19:17:45.319Z,71.46
2019-03-21T19:20:51.015Z,71.88
2019-03-21T19:23:57.049Z,71.90
2019-03-21T19:27:02.857Z,71.46
2019-03-21T19:30:09.429Z,69.93
2019-03-21T19:33:15.185Z,69.64
2019-03-21T19:36:20.885Z,70.27
2019-03-21T19:39:26.670Z,70.65
2019-03-21T19:42:32.404Z,72.27
2019-03-21T19:45:38.216Z,73.41
2019-03-21T19:48:50.241Z,73.45
2019-03-21T19:51:51.274Z,73.98
2019-03-21T19:54:56.966Z,74.32
2019-03-21T19:58:02.750Z,73.71
2019-03-21T20:01:08.670Z,73.70
2019-03-21T20:04:14.534Z,74.38
2019-03-21T20:07:20.264Z,73.87
2019-03-21T20:10:26.122Z,74.14
2019-03-21T20:13:31.920Z,73.36
2019-03-21T20:16:37.626Z,74.10
2019-03-21T20:19:43.433Z,74.96
2019-03-21T20:22:49.341Z,75.42
2019-03-21T20:25:55.272Z,75.33
2019-03-21T20:29:01.038Z,74.64
2019-03-21T20:32:06.874Z,74.13
2019-03-21T20:35:12.585Z,74.97
2019-03-21T20:38:18.518Z,74.87
2019-03-21T20:41:24.416Z,74.66
2019-03-21T20:44:30.252Z,74.63
2019-03-21T20:47:35.967Z,75.58
2019-03-21T20:50:41.696Z,76.66
2019-03-21T20:53:47.425Z,77.17
2019-03-21T20:56:53.189Z,77.42
2019-03-21T20:59:59.182Z,76.79
2019-03-21T21:03:04.929Z,77.03
2019-03-21T21:06:12.017Z,77.83
2019-03-21T21:09:17.809Z,77.73
2019-03-21T21:12:23.720Z,78.16
2019-03-21T21:15:29.541Z,78.38
2019-03-21T21:18:35.254Z,78.72
2019-03-21T21:21:41.005Z,78.72
2019-03-21T21:24:46.742Z,79.37
2019-03-21T21:27:52.489Z,80.00
2019-03-21T21:30:58.260Z,80.21
2019-03-21T21:34:04.170Z,80.71
2019-03-21T21:37:09.992Z,81.41
2019-03-21T21:40:16.788Z,81.50
2019-03-21T21:43:25.229Z,81.51
2019-03-21T21:46:31.052Z,81.48
2019-03-21T21:49:36.730Z,82.16
2019-03-21T21:52:42.638Z,82.44
2019-03-21T21:55:48.407Z,81.94
2019-03-21T21:58:54.161Z,81.99
2019-03-21T22:01:59.947Z,82.20
2019-03-21T22:05:06.016Z,81.84
2019-03-21T22:08:11.802Z,81.68
2019-03-21T22:11:17.711Z,82.08
2019-03-21T22:14:23.544Z,82.61
2019-03-21T22:17:29.291Z,82.95
2019-03-21T22:20:35.123Z,83.13
2019-03-21T22:23:40.784Z,83.24
2019-03-21T22:26:46.489Z,83.57
2019-03-21T22:29:52.308Z,83.70
2019-03-21T22:32:58.168Z,83.45
2019-03-21T22:36:06.466Z,83.58
2019-03-21T22:39:11.274Z,83.71
2019-03-21T22:42:16.988Z,84.26
2019-03-21T22:45:22.769Z,85.02
2019-03-21T22:48:28.535Z,85.60
2019-03-21T22:51:34.222Z,86.03
2019-03-21T22:54:39.897Z,85.75
2019-03-21T22:57:45.693Z,86.28
2019-03-21T23:00:53.790Z,86.74
2019-03-21T23:03:59.655Z,87.54
2019-03-21T23:07:05.326Z,87.94
2019-03-21T23:10:12.428Z,87.79
2019-03-21T23:13:18.026Z,88.29
2019-03-21T23:16:23.632Z,88.69
2019-03-21T23:19:30.415Z,88.58
2019-03-21T23:22:36.105Z,88.60
2019-03-21T23:25:41.738Z,89.00
2019-03-21T23:28:47.434Z,88.91
2019-03-21T23:31:53.132Z,88.98
2019-03-21T23:34:58.739Z,89.08
2019-03-21T23:38:04.452Z,89.37
2019-03-21T23:41:10.101Z,88.60
2019-03-21T23:44:16.103Z,88.98
2019-03-21T23:47:22.015Z,89.62
2019-03-21T23:50:27.627Z,90.29
2019-03-21T23:53:33.257Z,90.29
2019-03-21T23:56:38.948Z,89.24
2019-03-21T23:59:44.640Z,89.63
